sensor_id;sensor_type;location;lat;lon;timestamp;temperature;humidity
26707;DHT22;14319;49.422;10.934;2023-08-24T00:01:51;20.00;83.00
26707;DHT22;14319;49.422;10.934;2023-08-24T00:03:51;19.80;83.70
26707;DHT22;14319;49.422;10.934;2023-08-24T00:05:52;19.90;83.80
26707;DHT22;14319;49.422;10.934;2023-08-24T00:07:53;20.00;83.50
26707;DHT22;14319;49.422;10.934;2023-08-24T00:09:53;20.00;83.00
26707;DHT22;14319;49.422;10.934;2023-08-24T00:11:54;20.20;82.80
26707;DHT22;14319;49.422;10.934;2023-08-24T00:13:54;20.10;83.20
26707;DHT22;14319;49.422;10.934;2023-08-24T00:15:55;20.00;83.10
26707;DHT22;14319;49.422;10.934;2023-08-24T00:17:56;19.70;84.10
26707;DHT22;14319;49.422;10.934;2023-08-24T00:19:56;19.70;84.40
26707;DHT22;14319;49.422;10.934;2023-08-24T00:21:57;19.70;84.50
26707;DHT22;14319;49.422;10.934;2023-08-24T00:23:58;19.60;84.80
26707;DHT22;14319;49.422;10.934;2023-08-24T00:26:00;19.60;84.60
26707;DHT22;14319;49.422;10.934;2023-08-24T00:28:00;19.40;85.30
26707;DHT22;14319;49.422;10.934;2023-08-24T00:30:05;19.30;86.00
26707;DHT22;14319;49.422;10.934;2023-08-24T00:32:10;19.30;86.40
26707;DHT22;14319;49.422;10.934;2023-08-24T00:34:10;19.20;86.30
26707;DHT22;14319;49.422;10.934;2023-08-24T00:36:11;19.20;86.40
26707;DHT22;14319;49.422;10.934;2023-08-24T00:38:12;19.30;86.30
26707;DHT22;14319;49.422;10.934;2023-08-24T00:40:13;19.30;86.30
26707;DHT22;14319;49.422;10.934;2023-08-24T00:42:14;19.20;86.50
26707;DHT22;14319;49.422;10.934;2023-08-24T00:44:15;19.10;87.10
26707;DHT22;14319;49.422;10.934;2023-08-24T00:46:17;18.90;87.60
26707;DHT22;14319;49.422;10.934;2023-08-24T00:48:19;18.90;87.80
26707;DHT22;14319;49.422;10.934;2023-08-24T00:50:21;18.90;87.80
26707;DHT22;14319;49.422;10.934;2023-08-24T00:52:24;19.00;86.80
26707;DHT22;14319;49.422;10.934;2023-08-24T00:54:25;19.10;87.00
26707;DHT22;14319;49.422;10.934;2023-08-24T00:56:26;19.10;86.50
26707;DHT22;14319;49.422;10.934;2023-08-24T00:58:27;19.10;86.60
26707;DHT22;14319;49.422;10.934;2023-08-24T01:00:29;19.00;86.70
26707;DHT22;14319;49.422;10.934;2023-08-24T01:02:29;19.00;86.80
26707;DHT22;14319;49.422;10.934;2023-08-24T01:04:30;19.00;87.20
26707;DHT22;14319;49.422;10.934;2023-08-24T01:06:31;19.10;86.60
26707;DHT22;14319;49.422;10.934;2023-08-24T01:08:31;19.20;86.50
26707;DHT22;14319;49.422;10.934;2023-08-24T01:10:44;19.00;86.40
26707;DHT22;14319;49.422;10.934;2023-08-24T01:13:10;19.00;87.00
26707;DHT22;14319;49.422;10.934;2023-08-24T01:17:23;19.00;86.30
26707;DHT22;14319;49.422;10.934;2023-08-24T01:19:41;19.00;86.70
26707;DHT22;14319;49.422;10.934;2023-08-24T01:21:43;18.90;87.20
26707;DHT22;14319;49.422;10.934;2023-08-24T01:23:48;19.10;86.80
26707;DHT22;14319;49.422;10.934;2023-08-24T01:26:13;19.20;86.00
26707;DHT22;14319;49.422;10.934;2023-08-24T01:28:15;19.20;85.80
26707;DHT22;14319;49.422;10.934;2023-08-24T01:30:17;19.00;86.60
26707;DHT22;14319;49.422;10.934;2023-08-24T01:32:18;18.80;87.20
26707;DHT22;14319;49.422;10.934;2023-08-24T01:34:18;18.80;87.60
26707;DHT22;14319;49.422;10.934;2023-08-24T01:36:19;18.70;87.90
26707;DHT22;14319;49.422;10.934;2023-08-24T01:38:20;18.80;87.70
26707;DHT22;14319;49.422;10.934;2023-08-24T01:40:36;18.90;87.30
26707;DHT22;14319;49.422;10.934;2023-08-24T01:43:03;18.70;87.40
26707;DHT22;14319;49.422;10.934;2023-08-24T01:45:06;18.50;88.40
26707;DHT22;14319;49.422;10.934;2023-08-24T01:47:09;18.40;88.80
26707;DHT22;14319;49.422;10.934;2023-08-24T01:49:13;18.20;89.50
26707;DHT22;14319;49.422;10.934;2023-08-24T01:51:15;18.10;90.30
26707;DHT22;14319;49.422;10.934;2023-08-24T01:53:16;18.30;90.00
26707;DHT22;14319;49.422;10.934;2023-08-24T01:55:20;18.50;88.70
26707;DHT22;14319;49.422;10.934;2023-08-24T01:57:21;18.70;88.30
26707;DHT22;14319;49.422;10.934;2023-08-24T01:59:21;18.60;87.80
26707;DHT22;14319;49.422;10.934;2023-08-24T02:01:22;18.30;89.30
26707;DHT22;14319;49.422;10.934;2023-08-24T02:03:24;18.40;89.30
26707;DHT22;14319;49.422;10.934;2023-08-24T02:05:24;18.40;88.80
26707;DHT22;14319;49.422;10.934;2023-08-24T02:07:27;18.30;89.30
26707;DHT22;14319;49.422;10.934;2023-08-24T02:09:28;18.40;89.40
26707;DHT22;14319;49.422;10.934;2023-08-24T02:11:29;18.50;89.00
26707;DHT22;14319;49.422;10.934;2023-08-24T02:13:29;18.70;88.40
26707;DHT22;14319;49.422;10.934;2023-08-24T02:15:30;18.80;87.80
26707;DHT22;14319;49.422;10.934;2023-08-24T02:17:31;18.80;87.80
26707;DHT22;14319;49.422;10.934;2023-08-24T02:19:31;18.80;87.40
26707;DHT22;14319;49.422;10.934;2023-08-24T02:21:35;18.80;87.50
26707;DHT22;14319;49.422;10.934;2023-08-24T02:23:37;18.90;88.00
26707;DHT22;14319;49.422;10.934;2023-08-24T02:25:42;18.90;87.00
26707;DHT22;14319;49.422;10.934;2023-08-24T02:27:43;18.90;87.30
26707;DHT22;14319;49.422;10.934;2023-08-24T02:29:44;18.80;87.00
26707;DHT22;14319;49.422;10.934;2023-08-24T02:31:45;18.80;87.10
26707;DHT22;14319;49.422;10.934;2023-08-24T02:33:48;18.70;87.40
26707;DHT22;14319;49.422;10.934;2023-08-24T02:35:49;18.60;88.00
26707;DHT22;14319;49.422;10.934;2023-08-24T02:37:49;18.70;87.80
26707;DHT22;14319;49.422;10.934;2023-08-24T02:39:50;18.70;87.30
26707;DHT22;14319;49.422;10.934;2023-08-24T02:41:51;18.80;87.00
26707;DHT22;14319;49.422;10.934;2023-08-24T02:43:51;18.70;87.20
26707;DHT22;14319;49.422;10.934;2023-08-24T02:45:53;18.80;86.80
26707;DHT22;14319;49.422;10.934;2023-08-24T02:47:54;18.60;87.00
26707;DHT22;14319;49.422;10.934;2023-08-24T02:49:54;18.40;88.20
26707;DHT22;14319;49.422;10.934;2023-08-24T02:51:55;18.30;88.80
26707;DHT22;14319;49.422;10.934;2023-08-24T02:53:55;18.40;88.60
26707;DHT22;14319;49.422;10.934;2023-08-24T02:55:56;18.50;88.20
26707;DHT22;14319;49.422;10.934;2023-08-24T02:57:57;18.40;88.30
26707;DHT22;14319;49.422;10.934;2023-08-24T02:59:58;18.30;89.00
26707;DHT22;14319;49.422;10.934;2023-08-24T03:01:58;18.20;89.00
26707;DHT22;14319;49.422;10.934;2023-08-24T03:03:59;18.20;89.70
26707;DHT22;14319;49.422;10.934;2023-08-24T03:06:05;18.20;89.00
26707;DHT22;14319;49.422;10.934;2023-08-24T03:08:06;18.00;90.70
26707;DHT22;14319;49.422;10.934;2023-08-24T03:10:07;18.00;90.30
26707;DHT22;14319;49.422;10.934;2023-08-24T03:12:08;17.90;90.60
26707;DHT22;14319;49.422;10.934;2023-08-24T03:14:08;18.00;90.30
26707;DHT22;14319;49.422;10.934;2023-08-24T03:16:10;17.90;90.40
26707;DHT22;14319;49.422;10.934;2023-08-24T03:18:12;18.20;90.00
26707;DHT22;14319;49.422;10.934;2023-08-24T03:20:13;18.20;89.40
26707;DHT22;14319;49.422;10.934;2023-08-24T03:22:15;18.10;89.20
26707;DHT22;14319;49.422;10.934;2023-08-24T03:24:15;18.20;89.20
26707;DHT22;14319;49.422;10.934;2023-08-24T03:26:16;18.00;89.90
26707;DHT22;14319;49.422;10.934;2023-08-24T03:28:17;17.90;90.60
26707;DHT22;14319;49.422;10.934;2023-08-24T03:30:17;17.80;90.70
26707;DHT22;14319;49.422;10.934;2023-08-24T03:32:18;17.80;91.00
26707;DHT22;14319;49.422;10.934;2023-08-24T03:34:19;17.70;91.30
26707;DHT22;14319;49.422;10.934;2023-08-24T03:36:21;17.60;91.40
26707;DHT22;14319;49.422;10.934;2023-08-24T03:38:22;17.60;92.00
26707;DHT22;14319;49.422;10.934;2023-08-24T03:40:22;17.60;91.90
26707;DHT22;14319;49.422;10.934;2023-08-24T03:42:23;17.60;91.80
26707;DHT22;14319;49.422;10.934;2023-08-24T03:44:24;17.50;91.60
26707;DHT22;14319;49.422;10.934;2023-08-24T03:46:25;17.40;92.50
26707;DHT22;14319;49.422;10.934;2023-08-24T03:48:26;17.40;92.00
26707;DHT22;14319;49.422;10.934;2023-08-24T03:50:26;17.50;92.20
26707;DHT22;14319;49.422;10.934;2023-08-24T03:52:27;17.60;91.70
26707;DHT22;14319;49.422;10.934;2023-08-24T03:54:28;17.70;91.30
26707;DHT22;14319;49.422;10.934;2023-08-24T03:56:28;17.70;90.70
26707;DHT22;14319;49.422;10.934;2023-08-24T03:58:29;17.80;90.70
26707;DHT22;14319;49.422;10.934;2023-08-24T04:00:32;17.90;90.20
26707;DHT22;14319;49.422;10.934;2023-08-24T04:02:34;17.80;90.00
26707;DHT22;14319;49.422;10.934;2023-08-24T04:04:36;17.80;90.30
26707;DHT22;14319;49.422;10.934;2023-08-24T04:06:36;17.80;90.20
26707;DHT22;14319;49.422;10.934;2023-08-24T04:08:37;17.80;90.20
26707;DHT22;14319;49.422;10.934;2023-08-24T04:10:38;17.80;90.40
26707;DHT22;14319;49.422;10.934;2023-08-24T04:12:38;17.80;90.50
26707;DHT22;14319;49.422;10.934;2023-08-24T04:14:39;17.60;91.20
26707;DHT22;14319;49.422;10.934;2023-08-24T04:16:39;17.50;91.90
26707;DHT22;14319;49.422;10.934;2023-08-24T04:18:42;17.40;92.10
26707;DHT22;14319;49.422;10.934;2023-08-24T04:20:42;17.50;92.10
26707;DHT22;14319;49.422;10.934;2023-08-24T04:22:43;17.60;91.70
26707;DHT22;14319;49.422;10.934;2023-08-24T04:24:44;17.80;90.60
26707;DHT22;14319;49.422;10.934;2023-08-24T04:26:44;18.00;91.00
26707;DHT22;14319;49.422;10.934;2023-08-24T04:28:45;17.70;90.40
26707;DHT22;14319;49.422;10.934;2023-08-24T04:30:53;17.30;92.20
26707;DHT22;14319;49.422;10.934;2023-08-24T04:32:54;17.20;92.90
26707;DHT22;14319;49.422;10.934;2023-08-24T04:34:55;17.10;93.30
26707;DHT22;14319;49.422;10.934;2023-08-24T04:36:55;17.10;93.20
26707;DHT22;14319;49.422;10.934;2023-08-24T04:38:56;17.20;93.10
26707;DHT22;14319;49.422;10.934;2023-08-24T04:40:56;17.20;93.20
26707;DHT22;14319;49.422;10.934;2023-08-24T04:42:57;17.30;92.70
26707;DHT22;14319;49.422;10.934;2023-08-24T04:44:58;17.30;92.60
26707;DHT22;14319;49.422;10.934;2023-08-24T04:46:58;17.30;92.70
26707;DHT22;14319;49.422;10.934;2023-08-24T04:48:59;17.40;92.60
26707;DHT22;14319;49.422;10.934;2023-08-24T04:51:02;17.60;92.70
26707;DHT22;14319;49.422;10.934;2023-08-24T04:53:03;17.70;91.40
26707;DHT22;14319;49.422;10.934;2023-08-24T04:55:04;17.70;90.60
26707;DHT22;14319;49.422;10.934;2023-08-24T04:57:05;17.40;92.10
26707;DHT22;14319;49.422;10.934;2023-08-24T04:59:05;17.40;92.40
26707;DHT22;14319;49.422;10.934;2023-08-24T05:01:08;17.60;91.70
26707;DHT22;14319;49.422;10.934;2023-08-24T05:03:08;17.70;91.40
26707;DHT22;14319;49.422;10.934;2023-08-24T05:05:09;17.80;90.70
26707;DHT22;14319;49.422;10.934;2023-08-24T05:07:14;17.60;91.70
26707;DHT22;14319;49.422;10.934;2023-08-24T05:09:14;17.50;92.10
26707;DHT22;14319;49.422;10.934;2023-08-24T05:11:19;17.30;93.10
26707;DHT22;14319;49.422;10.934;2023-08-24T05:13:20;17.50;92.90
26707;DHT22;14319;49.422;10.934;2023-08-24T05:15:21;17.60;92.70
26707;DHT22;14319;49.422;10.934;2023-08-24T05:17:22;17.70;92.30
26707;DHT22;14319;49.422;10.934;2023-08-24T05:19:25;17.70;92.60
26707;DHT22;14319;49.422;10.934;2023-08-24T05:21:25;17.60;93.30
26707;DHT22;14319;49.422;10.934;2023-08-24T05:23:26;17.20;94.80
26707;DHT22;14319;49.422;10.934;2023-08-24T05:25:27;17.00;96.50
26707;DHT22;14319;49.422;10.934;2023-08-24T05:27:27;16.90;96.60
26707;DHT22;14319;49.422;10.934;2023-08-24T05:29:28;16.80;97.30
26707;DHT22;14319;49.422;10.934;2023-08-24T05:31:28;16.80;98.10
26707;DHT22;14319;49.422;10.934;2023-08-24T05:33:29;16.80;98.60
26707;DHT22;14319;49.422;10.934;2023-08-24T05:35:31;16.90;98.50
26707;DHT22;14319;49.422;10.934;2023-08-24T05:37:32;17.00;97.70
26707;DHT22;14319;49.422;10.934;2023-08-24T05:39:33;17.10;97.80
26707;DHT22;14319;49.422;10.934;2023-08-24T05:41:33;17.20;97.70
26707;DHT22;14319;49.422;10.934;2023-08-24T05:43:34;17.50;97.00
26707;DHT22;14319;49.422;10.934;2023-08-24T05:45:35;17.70;95.70
26707;DHT22;14319;49.422;10.934;2023-08-24T05:47:36;17.80;95.10
26707;DHT22;14319;49.422;10.934;2023-08-24T05:49:36;17.80;95.10
26707;DHT22;14319;49.422;10.934;2023-08-24T05:51:37;17.70;96.10
26707;DHT22;14319;49.422;10.934;2023-08-24T05:53:37;17.70;96.20
26707;DHT22;14319;49.422;10.934;2023-08-24T05:55:38;17.90;96.30
26707;DHT22;14319;49.422;10.934;2023-08-24T05:57:39;18.10;95.20
26707;DHT22;14319;49.422;10.934;2023-08-24T05:59:40;17.90;95.10
26707;DHT22;14319;49.422;10.934;2023-08-24T06:01:41;18.00;95.70
26707;DHT22;14319;49.422;10.934;2023-08-24T06:03:41;18.10;95.40
26707;DHT22;14319;49.422;10.934;2023-08-24T06:05:42;18.30;94.50
26707;DHT22;14319;49.422;10.934;2023-08-24T06:07:43;18.40;94.20
26707;DHT22;14319;49.422;10.934;2023-08-24T06:09:43;18.50;94.10
26707;DHT22;14319;49.422;10.934;2023-08-24T06:11:44;18.60;93.70
26707;DHT22;14319;49.422;10.934;2023-08-24T06:13:45;18.70;93.50
26707;DHT22;14319;49.422;10.934;2023-08-24T06:15:45;18.80;93.70
26707;DHT22;14319;49.422;10.934;2023-08-24T06:17:46;18.80;93.80
26707;DHT22;14319;49.422;10.934;2023-08-24T06:19:48;18.90;93.70
26707;DHT22;14319;49.422;10.934;2023-08-24T06:21:48;18.90;93.60
26707;DHT22;14319;49.422;10.934;2023-08-24T06:23:49;19.00;92.60
26707;DHT22;14319;49.422;10.934;2023-08-24T06:25:50;19.00;93.40
26707;DHT22;14319;49.422;10.934;2023-08-24T06:27:51;19.00;93.00
26707;DHT22;14319;49.422;10.934;2023-08-24T06:29:52;19.00;93.50
26707;DHT22;14319;49.422;10.934;2023-08-24T06:31:52;19.10;93.10
26707;DHT22;14319;49.422;10.934;2023-08-24T06:33:53;19.10;93.00
26707;DHT22;14319;49.422;10.934;2023-08-24T06:35:53;19.00;93.10
26707;DHT22;14319;49.422;10.934;2023-08-24T06:37:54;19.10;92.90
26707;DHT22;14319;49.422;10.934;2023-08-24T06:39:55;19.00;93.30
26707;DHT22;14319;49.422;10.934;2023-08-24T06:41:55;19.00;94.10
26707;DHT22;14319;49.422;10.934;2023-08-24T06:43:59;19.20;93.50
26707;DHT22;14319;49.422;10.934;2023-08-24T06:46:00;19.30;93.30
26707;DHT22;14319;49.422;10.934;2023-08-24T06:48:00;19.40;93.10
26707;DHT22;14319;49.422;10.934;2023-08-24T06:50:01;19.50;92.90
26707;DHT22;14319;49.422;10.934;2023-08-24T06:52:02;19.50;92.60
26707;DHT22;14319;49.422;10.934;2023-08-24T06:54:03;19.60;92.40
26707;DHT22;14319;49.422;10.934;2023-08-24T06:56:04;19.60;91.90
26707;DHT22;14319;49.422;10.934;2023-08-24T06:58:04;19.60;91.80
26707;DHT22;14319;49.422;10.934;2023-08-24T07:00:06;19.60;91.20
26707;DHT22;14319;49.422;10.934;2023-08-24T07:02:07;19.70;91.00
26707;DHT22;14319;49.422;10.934;2023-08-24T07:04:08;19.80;91.40
26707;DHT22;14319;49.422;10.934;2023-08-24T07:06:09;19.70;91.20
26707;DHT22;14319;49.422;10.934;2023-08-24T07:08:13;19.70;91.50
26707;DHT22;14319;49.422;10.934;2023-08-24T07:10:14;19.70;91.60
26707;DHT22;14319;49.422;10.934;2023-08-24T07:12:14;19.80;91.50
26707;DHT22;14319;49.422;10.934;2023-08-24T07:14:15;19.80;91.50
26707;DHT22;14319;49.422;10.934;2023-08-24T07:16:15;19.60;92.60
26707;DHT22;14319;49.422;10.934;2023-08-24T07:18:16;19.20;94.40
26707;DHT22;14319;49.422;10.934;2023-08-24T07:20:17;19.40;94.10
26707;DHT22;14319;49.422;10.934;2023-08-24T07:22:18;19.50;93.20
26707;DHT22;14319;49.422;10.934;2023-08-24T07:24:19;19.70;93.20
26707;DHT22;14319;49.422;10.934;2023-08-24T07:26:21;19.60;93.70
26707;DHT22;14319;49.422;10.934;2023-08-24T07:28:21;19.30;94.90
26707;DHT22;14319;49.422;10.934;2023-08-24T07:30:22;19.20;94.60
26707;DHT22;14319;49.422;10.934;2023-08-24T07:32:22;19.20;95.10
26707;DHT22;14319;49.422;10.934;2023-08-24T07:34:24;19.30;93.60
26707;DHT22;14319;49.422;10.934;2023-08-24T07:36:24;19.30;93.80
26707;DHT22;14319;49.422;10.934;2023-08-24T07:38:25;19.30;93.90
26707;DHT22;14319;49.422;10.934;2023-08-24T07:40:26;19.30;94.60
26707;DHT22;14319;49.422;10.934;2023-08-24T07:42:26;19.20;93.80
26707;DHT22;14319;49.422;10.934;2023-08-24T07:44:27;19.20;92.30
26707;DHT22;14319;49.422;10.934;2023-08-24T07:46:28;19.20;93.70
26707;DHT22;14319;49.422;10.934;2023-08-24T07:48:29;19.30;95.10
26707;DHT22;14319;49.422;10.934;2023-08-24T07:50:30;19.30;94.20
26707;DHT22;14319;49.422;10.934;2023-08-24T07:52:31;19.30;92.70
26707;DHT22;14319;49.422;10.934;2023-08-24T07:54:31;19.40;93.60
26707;DHT22;14319;49.422;10.934;2023-08-24T07:56:32;19.40;92.50
26707;DHT22;14319;49.422;10.934;2023-08-24T07:58:33;19.50;93.60
26707;DHT22;14319;49.422;10.934;2023-08-24T08:00:34;19.60;93.20
26707;DHT22;14319;49.422;10.934;2023-08-24T08:02:36;19.80;91.70
26707;DHT22;14319;49.422;10.934;2023-08-24T08:04:37;19.90;92.20
26707;DHT22;14319;49.422;10.934;2023-08-24T08:06:38;19.90;90.70
26707;DHT22;14319;49.422;10.934;2023-08-24T08:08:39;20.00;90.20
26707;DHT22;14319;49.422;10.934;2023-08-24T08:10:40;20.10;90.40
26707;DHT22;14319;49.422;10.934;2023-08-24T08:12:41;20.00;90.50
26707;DHT22;14319;49.422;10.934;2023-08-24T08:14:41;20.20;90.50
26707;DHT22;14319;49.422;10.934;2023-08-24T08:16:42;20.50;88.70
26707;DHT22;14319;49.422;10.934;2023-08-24T08:18:42;20.50;88.60
26707;DHT22;14319;49.422;10.934;2023-08-24T08:20:43;20.40;88.20
26707;DHT22;14319;49.422;10.934;2023-08-24T08:22:44;20.50;88.50
26707;DHT22;14319;49.422;10.934;2023-08-24T08:24:44;20.50;88.50
26707;DHT22;14319;49.422;10.934;2023-08-24T08:26:45;20.60;88.00
26707;DHT22;14319;49.422;10.934;2023-08-24T08:28:45;20.60;88.90
26707;DHT22;14319;49.422;10.934;2023-08-24T08:30:48;20.70;89.20
26707;DHT22;14319;49.422;10.934;2023-08-24T08:32:49;20.70;88.10
26707;DHT22;14319;49.422;10.934;2023-08-24T08:34:51;20.80;88.30
26707;DHT22;14319;49.422;10.934;2023-08-24T08:36:52;20.80;88.00
26707;DHT22;14319;49.422;10.934;2023-08-24T08:38:52;20.90;88.40
26707;DHT22;14319;49.422;10.934;2023-08-24T08:40:55;20.90;89.10
26707;DHT22;14319;49.422;10.934;2023-08-24T08:42:57;21.00;88.50
26707;DHT22;14319;49.422;10.934;2023-08-24T08:44:59;21.00;88.10
26707;DHT22;14319;49.422;10.934;2023-08-24T08:47:03;21.10;87.30
26707;DHT22;14319;49.422;10.934;2023-08-24T08:49:07;21.20;87.30
26707;DHT22;14319;49.422;10.934;2023-08-24T08:51:10;21.30;86.50
26707;DHT22;14319;49.422;10.934;2023-08-24T08:53:12;21.30;86.20
26707;DHT22;14319;49.422;10.934;2023-08-24T08:55:12;21.50;85.90
26707;DHT22;14319;49.422;10.934;2023-08-24T08:57:16;21.50;84.50
26707;DHT22;14319;49.422;10.934;2023-08-24T08:59:18;21.60;83.70
26707;DHT22;14319;49.422;10.934;2023-08-24T09:01:18;21.60;84.80
26707;DHT22;14319;49.422;10.934;2023-08-24T09:03:19;21.70;84.30
26707;DHT22;14319;49.422;10.934;2023-08-24T09:05:21;21.80;83.20
26707;DHT22;14319;49.422;10.934;2023-08-24T09:07:21;21.90;82.90
26707;DHT22;14319;49.422;10.934;2023-08-24T09:09:22;22.00;82.90
26707;DHT22;14319;49.422;10.934;2023-08-24T09:11:23;22.20;82.70
26707;DHT22;14319;49.422;10.934;2023-08-24T09:13:24;22.30;81.80
26707;DHT22;14319;49.422;10.934;2023-08-24T09:15:25;22.40;82.20
26707;DHT22;14319;49.422;10.934;2023-08-24T09:17:27;22.50;81.60
26707;DHT22;14319;49.422;10.934;2023-08-24T09:19:28;22.60;80.60
26707;DHT22;14319;49.422;10.934;2023-08-24T09:21:30;22.70;81.70
26707;DHT22;14319;49.422;10.934;2023-08-24T09:23:31;22.70;82.10
26707;DHT22;14319;49.422;10.934;2023-08-24T09:25:32;22.70;81.50
26707;DHT22;14319;49.422;10.934;2023-08-24T09:27:32;22.70;80.10
26707;DHT22;14319;49.422;10.934;2023-08-24T09:29:36;22.70;80.00
26707;DHT22;14319;49.422;10.934;2023-08-24T09:31:39;22.70;81.30
26707;DHT22;14319;49.422;10.934;2023-08-24T09:33:43;22.60;79.60
26707;DHT22;14319;49.422;10.934;2023-08-24T09:35:50;22.60;81.10
26707;DHT22;14319;49.422;10.934;2023-08-24T09:37:50;22.60;79.50
26707;DHT22;14319;49.422;10.934;2023-08-24T09:40:01;22.70;80.30
26707;DHT22;14319;49.422;10.934;2023-08-24T09:42:05;22.70;79.10
26707;DHT22;14319;49.422;10.934;2023-08-24T09:44:07;22.70;80.10
26707;DHT22;14319;49.422;10.934;2023-08-24T09:46:08;22.80;79.70
26707;DHT22;14319;49.422;10.934;2023-08-24T09:48:09;22.80;79.50
26707;DHT22;14319;49.422;10.934;2023-08-24T09:50:09;22.80;78.30
26707;DHT22;14319;49.422;10.934;2023-08-24T09:52:10;22.90;77.90
26707;DHT22;14319;49.422;10.934;2023-08-24T09:54:11;23.00;78.90
26707;DHT22;14319;49.422;10.934;2023-08-24T09:56:14;23.10;77.90
26707;DHT22;14319;49.422;10.934;2023-08-24T09:58:16;23.10;76.80
26707;DHT22;14319;49.422;10.934;2023-08-24T10:00:18;23.20;76.30
26707;DHT22;14319;49.422;10.934;2023-08-24T10:02:23;23.20;77.70
26707;DHT22;14319;49.422;10.934;2023-08-24T10:04:25;23.30;77.80
26707;DHT22;14319;49.422;10.934;2023-08-24T10:06:28;23.30;76.10
26707;DHT22;14319;49.422;10.934;2023-08-24T10:08:34;23.30;76.90
26707;DHT22;14319;49.422;10.934;2023-08-24T10:10:37;23.30;75.50
26707;DHT22;14319;49.422;10.934;2023-08-24T10:12:44;23.40;71.70
26707;DHT22;14319;49.422;10.934;2023-08-24T10:15:07;23.50;70.60
26707;DHT22;14319;49.422;10.934;2023-08-24T10:17:09;23.50;72.80
26707;DHT22;14319;49.422;10.934;2023-08-24T10:19:11;23.60;72.80
26707;DHT22;14319;49.422;10.934;2023-08-24T10:21:13;23.60;74.00
26707;DHT22;14319;49.422;10.934;2023-08-24T10:23:15;23.60;72.90
26707;DHT22;14319;49.422;10.934;2023-08-24T10:25:16;23.60;73.00
26707;DHT22;14319;49.422;10.934;2023-08-24T10:27:19;23.60;73.40
26707;DHT22;14319;49.422;10.934;2023-08-24T10:29:20;23.80;73.50
26707;DHT22;14319;49.422;10.934;2023-08-24T10:31:21;23.80;73.60
26707;DHT22;14319;49.422;10.934;2023-08-24T10:33:23;23.80;73.20
26707;DHT22;14319;49.422;10.934;2023-08-24T10:35:24;23.80;72.60
26707;DHT22;14319;49.422;10.934;2023-08-24T10:37:27;23.80;73.20
26707;DHT22;14319;49.422;10.934;2023-08-24T10:39:29;23.90;73.50
26707;DHT22;14319;49.422;10.934;2023-08-24T10:41:46;23.90;72.80
26707;DHT22;14319;49.422;10.934;2023-08-24T10:43:50;24.00;73.10
26707;DHT22;14319;49.422;10.934;2023-08-24T10:45:54;24.10;73.30
26707;DHT22;14319;49.422;10.934;2023-08-24T10:47:56;24.10;73.10
26707;DHT22;14319;49.422;10.934;2023-08-24T10:49:59;24.10;73.20
26707;DHT22;14319;49.422;10.934;2023-08-24T10:52:25;24.20;72.40
26707;DHT22;14319;49.422;10.934;2023-08-24T10:54:32;24.20;70.90
26707;DHT22;14319;49.422;10.934;2023-08-24T10:56:39;24.30;71.40
26707;DHT22;14319;49.422;10.934;2023-08-24T10:58:40;24.30;70.90
26707;DHT22;14319;49.422;10.934;2023-08-24T11:00:48;24.30;71.30
26707;DHT22;14319;49.422;10.934;2023-08-24T11:02:50;24.30;71.60
26707;DHT22;14319;49.422;10.934;2023-08-24T11:05:14;24.30;71.80
26707;DHT22;14319;49.422;10.934;2023-08-24T11:07:16;24.50;71.20
26707;DHT22;14319;49.422;10.934;2023-08-24T11:09:16;24.50;71.10
26707;DHT22;14319;49.422;10.934;2023-08-24T11:11:22;24.60;70.20
26707;DHT22;14319;49.422;10.934;2023-08-24T11:13:23;24.70;70.70
26707;DHT22;14319;49.422;10.934;2023-08-24T11:15:31;24.80;70.90
26707;DHT22;14319;49.422;10.934;2023-08-24T11:17:32;24.80;71.50
26707;DHT22;14319;49.422;10.934;2023-08-24T11:19:33;24.80;70.90
26707;DHT22;14319;49.422;10.934;2023-08-24T11:21:35;24.80;70.60
26707;DHT22;14319;49.422;10.934;2023-08-24T11:23:37;24.80;71.00
26707;DHT22;14319;49.422;10.934;2023-08-24T11:25:38;25.00;71.40
26707;DHT22;14319;49.422;10.934;2023-08-24T11:27:39;24.90;70.30
26707;DHT22;14319;49.422;10.934;2023-08-24T11:29:41;25.10;70.70
26707;DHT22;14319;49.422;10.934;2023-08-24T11:31:42;25.10;68.90
26707;DHT22;14319;49.422;10.934;2023-08-24T11:33:42;25.10;69.00
26707;DHT22;14319;49.422;10.934;2023-08-24T11:35:44;25.00;70.20
26707;DHT22;14319;49.422;10.934;2023-08-24T11:37:54;25.00;70.30
26707;DHT22;14319;49.422;10.934;2023-08-24T11:39:55;25.10;69.70
26707;DHT22;14319;49.422;10.934;2023-08-24T11:42:03;25.30;70.40
26707;DHT22;14319;49.422;10.934;2023-08-24T11:44:04;25.40;71.50
26707;DHT22;14319;49.422;10.934;2023-08-24T11:46:05;25.50;70.40
26707;DHT22;14319;49.422;10.934;2023-08-24T11:48:06;25.40;70.60
26707;DHT22;14319;49.422;10.934;2023-08-24T11:50:08;25.50;70.80
26707;DHT22;14319;49.422;10.934;2023-08-24T11:52:09;25.50;71.10
26707;DHT22;14319;49.422;10.934;2023-08-24T11:54:10;25.50;71.40
26707;DHT22;14319;49.422;10.934;2023-08-24T11:56:11;25.50;71.60
26707;DHT22;14319;49.422;10.934;2023-08-24T11:58:16;25.40;70.80
26707;DHT22;14319;49.422;10.934;2023-08-24T12:00:19;25.40;71.80
26707;DHT22;14319;49.422;10.934;2023-08-24T12:02:21;25.40;71.30
26707;DHT22;14319;49.422;10.934;2023-08-24T12:04:22;25.60;70.70
26707;DHT22;14319;49.422;10.934;2023-08-24T12:06:27;25.80;68.40
26707;DHT22;14319;49.422;10.934;2023-08-24T12:08:30;25.90;68.00
26707;DHT22;14319;49.422;10.934;2023-08-24T12:10:31;26.00;67.90
26707;DHT22;14319;49.422;10.934;2023-08-24T12:12:31;26.00;67.90
26707;DHT22;14319;49.422;10.934;2023-08-24T12:14:44;26.00;69.70
26707;DHT22;14319;49.422;10.934;2023-08-24T12:16:45;26.00;69.00
26707;DHT22;14319;49.422;10.934;2023-08-24T12:18:56;26.10;68.20
26707;DHT22;14319;49.422;10.934;2023-08-24T12:21:00;26.10;69.40
26707;DHT22;14319;49.422;10.934;2023-08-24T12:23:01;26.20;67.00
26707;DHT22;14319;49.422;10.934;2023-08-24T12:25:01;26.20;66.70
26707;DHT22;14319;49.422;10.934;2023-08-24T12:27:02;26.30;66.40
26707;DHT22;14319;49.422;10.934;2023-08-24T12:29:08;26.30;67.40
26707;DHT22;14319;49.422;10.934;2023-08-24T12:31:09;26.50;67.00
26707;DHT22;14319;49.422;10.934;2023-08-24T12:33:26;26.50;64.50
26707;DHT22;14319;49.422;10.934;2023-08-24T12:35:27;26.60;65.20
26707;DHT22;14319;49.422;10.934;2023-08-24T12:37:28;26.60;64.80
26707;DHT22;14319;49.422;10.934;2023-08-24T12:39:38;26.60;66.30
26707;DHT22;14319;49.422;10.934;2023-08-24T12:41:39;26.60;64.80